CA-0397 weather

CLOSED Vankleek Hill Airport
Vankleek Hill, Ontario, Canada

Public forecast

Using degrees Celsius for public forecast. Weather courtesy of forecast.io.

METAR (pilot weather report)

Closest report is Montreal International (Mirabel) Airport, 30.4 nm (56.3 km) ENE. Retrieved 2019/05/19 15:00 UTC (52 minutes ago):

CYMX 191500Z 07007KT 15SM FEW009 OVC048 12/10 A2996 RMK SF2SC6 SLP148

TAF (pilot weather forecast)

Closest forecast is Montreal International (Mirabel) Airport, 30.4 nm (56.3 km) ENE. Retrieved 2019/05/19 12:42 UTC (3 hours ago):

TAF CYMX 191138Z 1912/2012 04006KT P6SM -RA OVC050 TEMPO 1912/1915 4SM -RA BR SCT008 OVC015 PROB30 1912/1913 21/2SM SHRA FM191500 06007KT P6SM SCT008 OVC015 TEMPO 1915/1919 BKN025 FM191900 07008KT P6SM BKN020 TEMPO 1919/2001 BKN030 FM200100 07010G20KT P6SM -DZ OVC015 FM200500 05008G18KT 21/2SM SHRA BR BKN005 OVC015 PROB30 2005/2008 VRB15G25KT 11/2SM +TSRA BR VV003 FM200800 23008KT P6SM OVC010 BECMG 2010/2012 23010G20KT RMK NXT FCST BY 191800Z